createdAt,value
2019-05-17T00:01:52.881Z,182.30
2019-05-17T00:06:03.193Z,187.43
2019-05-17T00:10:13.832Z,183.27
2019-05-17T00:14:24.163Z,187.00
2019-05-17T00:18:37.030Z,184.50
2019-05-17T00:22:47.705Z,189.97
2019-05-17T00:26:58.612Z,187.27
2019-05-17T00:31:09.287Z,183.70
2019-05-17T00:35:19.583Z,187.83
2019-05-17T00:39:29.907Z,188.10
2019-05-17T00:43:40.204Z,186.40
2019-05-17T00:47:50.509Z,184.30
2019-05-17T00:52:00.820Z,187.57
2019-05-17T00:56:11.310Z,191.27
2019-05-17T01:00:21.960Z,188.83
2019-05-17T01:04:32.560Z,190.17
2019-05-17T01:08:42.964Z,189.23
2019-05-17T01:12:53.400Z,190.80
2019-05-17T01:17:03.932Z,198.57
2019-05-17T01:21:14.270Z,191.50
2019-05-17T01:25:24.668Z,192.70
2019-05-17T01:29:36.295Z,184.13
2019-05-17T01:33:47.196Z,184.33
2019-05-17T01:37:57.576Z,188.97
2019-05-17T01:42:08.028Z,191.80
2019-05-17T01:46:18.923Z,188.53
2019-05-17T01:50:29.212Z,187.90
2019-05-17T01:54:39.892Z,195.50
2019-05-17T01:58:50.221Z,196.83
2019-05-17T02:03:00.566Z,185.73
2019-05-17T02:07:12.233Z,188.73
2019-05-17T02:11:22.677Z,195.63
2019-05-17T02:15:34.250Z,189.77
2019-05-17T02:19:46.443Z,194.40
2019-05-17T02:23:57.209Z,192.00
2019-05-17T02:28:07.713Z,194.97
2019-05-17T02:32:23.321Z,196.87
2019-05-17T02:36:33.278Z,191.85
2019-05-17T02:40:47.014Z,191.25
2019-05-17T02:44:57.710Z,192.63
2019-05-17T02:49:09.235Z,195.87
2019-05-17T02:53:22.722Z,192.13
2019-05-17T02:57:34.426Z,203.53
2019-05-17T03:01:44.343Z,197.10
2019-05-17T03:05:54.966Z,202.57
2019-05-17T03:10:18.310Z,197.03
2019-05-17T03:14:18.507Z,198.90
2019-05-17T03:18:28.838Z,199.43
2019-05-17T03:22:39.072Z,201.60
2019-05-17T03:26:52.394Z,197.97
2019-05-17T03:31:08.102Z,201.10
2019-05-17T03:35:16.372Z,197.03
2019-05-17T03:39:26.591Z,196.87
2019-05-17T03:43:40.187Z,201.63
2019-05-17T03:47:53.203Z,202.70
2019-05-17T03:52:03.310Z,203.07
2019-05-17T03:56:13.756Z,199.07
2019-05-17T04:00:24.442Z,202.30
2019-05-17T04:04:34.809Z,195.13
2019-05-17T04:08:45.140Z,199.80
2019-05-17T04:12:55.425Z,201.03
2019-05-17T04:17:06.868Z,199.60
2019-05-17T04:21:17.172Z,199.57
2019-05-17T04:25:27.483Z,195.63
2019-05-17T04:29:37.845Z,203.37
2019-05-17T04:33:49.730Z,201.10
2019-05-17T04:38:03.680Z,201.03
2019-05-17T04:42:13.659Z,195.27
2019-05-17T04:46:24.120Z,203.43
2019-05-17T04:50:35.085Z,199.93
2019-05-17T04:54:45.416Z,198.17
2019-05-17T04:58:55.708Z,202.20
2019-05-17T05:03:06.122Z,203.73
2019-05-17T05:07:16.532Z,204.70
2019-05-17T05:11:26.973Z,219.13
2019-05-17T05:15:43.309Z,197.53
2019-05-17T05:19:53.014Z,198.80
2019-05-17T05:24:03.785Z,204.07
2019-05-17T05:28:14.131Z,198.33
2019-05-17T05:32:24.435Z,197.37
2019-05-17T05:36:34.746Z,202.20
2019-05-17T05:40:48.327Z,204.40
2019-05-17T05:44:58.669Z,195.77
2019-05-17T05:49:09.014Z,199.93
2019-05-17T05:53:21.631Z,197.00
2019-05-17T05:57:32.173Z,196.17
2019-05-17T06:01:42.690Z,191.77
2019-05-17T06:05:52.984Z,197.57
2019-05-17T06:10:03.465Z,198.20
2019-05-17T06:14:13.890Z,197.57
2019-05-17T06:18:24.233Z,203.67
2019-05-17T06:22:36.318Z,204.97
2019-05-17T06:26:46.660Z,203.37
2019-05-17T06:30:57.067Z,204.17
2019-05-17T06:35:07.749Z,198.13
2019-05-17T06:39:19.312Z,204.07
2019-05-17T06:43:32.066Z,201.30
2019-05-17T06:47:42.658Z,202.73
2019-05-17T06:51:53.710Z,197.20
2019-05-17T06:56:05.347Z,210.00
2019-05-17T07:00:20.726Z,196.07
2019-05-17T07:04:30.002Z,200.97
2019-05-17T07:08:40.253Z,191.33
2019-05-17T07:12:55.937Z,196.67
2019-05-17T07:17:02.673Z,203.17
2019-05-17T07:21:12.994Z,192.07
2019-05-17T07:25:23.300Z,195.73
2019-05-17T07:29:33.969Z,188.80
2019-05-17T07:33:44.403Z,198.20
2019-05-17T07:37:54.838Z,199.33
2019-05-17T07:42:05.252Z,196.10
2019-05-17T07:46:15.657Z,196.20
2019-05-17T07:50:25.986Z,199.37
2019-05-17T07:54:36.280Z,196.07
2019-05-17T07:58:46.727Z,196.63
2019-05-17T08:02:59.961Z,197.50
2019-05-17T08:07:11.068Z,202.47
2019-05-17T08:11:21.771Z,196.70
2019-05-17T08:15:33.347Z,204.20
2019-05-17T08:19:43.882Z,197.50
2019-05-17T08:23:54.298Z,197.50
2019-05-17T08:28:06.176Z,197.73
2019-05-17T08:32:16.775Z,199.20
2019-05-17T08:36:29.651Z,197.03
2019-05-17T08:40:42.716Z,194.27
2019-05-17T08:44:53.030Z,187.20
2019-05-17T08:49:04.105Z,195.60
2019-05-17T08:53:16.157Z,192.93
2019-05-17T08:57:26.474Z,203.90
2019-05-17T09:01:39.192Z,189.70
2019-05-17T09:05:52.537Z,186.90
2019-05-17T09:10:01.739Z,187.23
2019-05-17T09:14:12.811Z,189.30
2019-05-17T09:18:23.266Z,191.70
2019-05-17T09:22:33.618Z,186.73
2019-05-17T09:26:44.169Z,186.83
2019-05-17T09:30:54.961Z,186.03
2019-05-17T09:35:10.081Z,185.90
2019-05-17T09:39:24.507Z,185.25
2019-05-17T09:43:40.072Z,190.20
2019-05-17T09:47:50.608Z,190.62
2019-05-17T09:52:01.101Z,200.10
2019-05-17T09:56:11.407Z,189.33
2019-05-17T10:00:22.033Z,193.05
2019-05-17T10:04:32.483Z,188.03
2019-05-17T10:08:43.230Z,187.62
2019-05-17T10:12:54.841Z,194.82
2019-05-17T10:17:05.514Z,192.30
2019-05-17T10:21:16.506Z,191.57
2019-05-17T10:25:29.370Z,195.37
2019-05-17T10:29:39.539Z,185.30
2019-05-17T10:33:50.007Z,184.65
2019-05-17T10:38:00.284Z,185.73
2019-05-17T10:42:11.072Z,190.82
2019-05-17T10:46:21.649Z,191.32
2019-05-17T10:50:32.056Z,191.73
2019-05-17T10:54:42.544Z,190.18
2019-05-17T10:58:52.884Z,190.05
2019-05-17T11:03:04.251Z,189.77
2019-05-17T11:07:14.447Z,193.97
2019-05-17T11:11:26.296Z,192.13
2019-05-17T11:15:37.872Z,188.75
2019-05-17T11:19:48.734Z,192.98
2019-05-17T11:23:59.098Z,191.65
2019-05-17T11:28:09.426Z,187.68
2019-05-17T11:32:20.558Z,195.25
2019-05-17T11:36:31.003Z,195.50
2019-05-17T11:40:43.890Z,192.92
2019-05-17T11:44:55.023Z,192.63
2019-05-17T11:49:05.384Z,192.73
2019-05-17T11:53:15.838Z,190.47
2019-05-17T11:57:27.760Z,186.28
2019-05-17T12:01:38.154Z,196.02
2019-05-17T12:05:48.601Z,189.30
2019-05-17T12:09:58.924Z,186.10
2019-05-17T12:14:09.501Z,190.80
2019-05-17T12:18:20.204Z,188.40
2019-05-17T12:22:30.739Z,191.77
2019-05-17T12:26:41.110Z,185.73
2019-05-17T12:30:51.849Z,189.05
2019-05-17T12:35:02.248Z,186.97
2019-05-17T12:39:12.978Z,183.78
2019-05-17T12:43:24.557Z,192.15
2019-05-17T12:47:34.831Z,190.38
2019-05-17T12:51:45.137Z,190.20
2019-05-17T12:55:55.597Z,186.82
2019-05-17T13:00:07.954Z,190.85
2019-05-17T13:04:18.877Z,192.82
2019-05-17T13:08:29.610Z,189.30
2019-05-17T13:12:40.050Z,187.80
2019-05-17T13:16:50.385Z,197.10
2019-05-17T13:21:00.702Z,191.75
2019-05-17T13:25:11.188Z,194.10
2019-05-17T13:29:21.524Z,188.85
2019-05-17T13:33:31.833Z,189.52
2019-05-17T13:37:42.126Z,186.87
2019-05-17T13:41:52.565Z,190.65
2019-05-17T13:46:03.137Z,190.50
2019-05-17T13:50:14.786Z,185.52
2019-05-17T13:54:25.145Z,194.30
2019-05-17T13:58:35.556Z,189.43
2019-05-17T14:02:46.978Z,191.55
2019-05-17T14:06:57.418Z,197.43
2019-05-17T14:11:07.825Z,185.78
2019-05-17T14:15:19.538Z,191.90
2019-05-17T14:19:29.928Z,186.88
2019-05-17T14:23:40.241Z,187.92
2019-05-17T14:27:51.054Z,185.37
2019-05-17T14:32:01.388Z,185.50
2019-05-17T14:36:12.295Z,186.73
2019-05-17T14:40:22.938Z,189.05
2019-05-17T14:44:34.835Z,187.15
2019-05-17T14:48:45.172Z,187.12
2019-05-17T14:52:56.047Z,187.80
2019-05-17T14:57:06.363Z,192.10
2019-05-17T15:01:16.717Z,188.05
2019-05-17T15:05:27.050Z,188.12
2019-05-17T15:09:37.431Z,191.90
2019-05-17T15:13:49.082Z,187.75
2019-05-17T15:17:59.514Z,191.12
2019-05-17T15:22:09.957Z,190.75
2019-05-17T15:26:21.239Z,193.90
2019-05-17T15:30:31.537Z,194.85
2019-05-17T15:34:42.481Z,188.35
2019-05-17T15:38:52.827Z,184.35
2019-05-17T15:43:04.782Z,190.47
2019-05-17T15:47:16.193Z,188.72
2019-05-17T15:51:26.537Z,188.95
2019-05-17T15:55:36.852Z,191.75
2019-05-17T15:59:48.943Z,189.95
2019-05-17T16:04:00.242Z,189.18
2019-05-17T16:08:10.611Z,196.07
2019-05-17T16:12:21.609Z,190.43
2019-05-17T16:16:31.881Z,187.60
2019-05-17T16:20:42.306Z,188.97
2019-05-17T16:24:53.021Z,193.75
2019-05-17T16:29:03.480Z,185.70
2019-05-17T16:33:14.774Z,188.52
2019-05-17T16:37:25.471Z,195.70
2019-05-17T16:41:37.148Z,195.92
2019-05-17T16:45:47.916Z,192.75
2019-05-17T16:49:58.369Z,197.00
2019-05-17T16:54:08.619Z,193.40
2019-05-17T16:58:18.949Z,195.92
2019-05-17T17:02:29.300Z,197.65
2019-05-17T17:06:39.719Z,191.95
2019-05-17T17:10:50.121Z,192.57
2019-05-17T17:15:00.477Z,193.97
2019-05-17T17:19:11.891Z,193.52
2019-05-17T17:23:22.339Z,184.05
2019-05-17T17:27:32.684Z,188.70
2019-05-17T17:31:43.181Z,194.40
2019-05-17T17:35:54.642Z,190.12
2019-05-17T17:40:08.846Z,190.55
2019-05-17T17:44:19.299Z,191.10
2019-05-17T17:48:29.697Z,193.05
2019-05-17T17:52:40.003Z,187.77
2019-05-17T17:56:51.011Z,183.18
2019-05-17T18:01:01.320Z,182.53
2019-05-17T18:05:11.989Z,184.93
2019-05-17T18:09:22.328Z,186.80
2019-05-17T18:13:33.209Z,186.40
2019-05-17T18:17:43.582Z,183.42
2019-05-17T18:21:55.425Z,189.22
2019-05-17T18:26:06.352Z,188.03
2019-05-17T18:30:18.836Z,189.93
2019-05-17T18:34:29.299Z,191.95
2019-05-17T18:38:40.255Z,188.10
2019-05-17T18:42:50.598Z,190.70
2019-05-17T18:47:00.988Z,195.80
2019-05-17T18:51:11.360Z,195.70
2019-05-17T18:55:21.733Z,192.20
2019-05-17T18:59:32.095Z,196.93
2019-05-17T19:03:42.519Z,198.00
2019-05-17T19:07:55.937Z,198.43
2019-05-17T19:12:07.721Z,190.43
2019-05-17T19:16:18.440Z,192.67
2019-05-17T19:20:28.847Z,197.13
2019-05-17T19:24:39.363Z,188.33
2019-05-17T19:28:51.365Z,193.03
2019-05-17T19:33:02.336Z,190.80
2019-05-17T19:37:12.674Z,193.80
2019-05-17T19:41:24.377Z,195.63
2019-05-17T19:45:34.897Z,197.43
2019-05-17T19:49:46.945Z,191.43
2019-05-17T19:53:58.260Z,195.77
2019-05-17T19:58:09.277Z,189.87
2019-05-17T20:02:19.611Z,194.43
2019-05-17T20:06:31.505Z,192.43
2019-05-17T20:10:41.974Z,200.33
2019-05-17T20:14:55.113Z,196.73
2019-05-17T20:19:05.458Z,194.17
2019-05-17T20:23:15.800Z,193.97
2019-05-17T20:27:26.950Z,197.70
2019-05-17T20:31:37.309Z,198.60
2019-05-17T20:35:48.173Z,194.50
2019-05-17T20:39:58.578Z,202.40
2019-05-17T20:44:09.516Z,192.13
2019-05-17T20:48:21.139Z,196.93
2019-05-17T20:52:32.983Z,192.03
2019-05-17T20:56:43.305Z,189.17
2019-05-17T21:00:53.714Z,193.37
2019-05-17T21:05:06.674Z,191.28
2019-05-17T21:09:17.007Z,191.37
2019-05-17T21:13:27.498Z,191.93
2019-05-17T21:17:38.751Z,189.57
2019-05-17T21:21:50.627Z,192.77
2019-05-17T21:26:00.940Z,191.03
2019-05-17T21:30:11.490Z,191.67
2019-05-17T21:34:21.800Z,195.27
2019-05-17T21:38:32.041Z,196.77
2019-05-17T21:42:44.087Z,194.47
2019-05-17T21:47:04.424Z,192.37
2019-05-17T21:51:08.286Z,192.83
2019-05-17T21:55:18.659Z,195.80
2019-05-17T21:59:29.080Z,210.57
2019-05-17T22:03:39.408Z,190.80
2019-05-17T22:07:49.740Z,186.40
2019-05-17T22:12:01.726Z,188.23
2019-05-17T22:16:19.470Z,191.70
2019-05-17T22:20:23.964Z,190.83
2019-05-17T22:24:34.241Z,188.87
2019-05-17T22:28:44.604Z,188.13
2019-05-17T22:32:54.944Z,182.37
2019-05-17T22:37:05.240Z,184.30
2019-05-17T22:41:17.528Z,189.00
2019-05-17T22:45:28.545Z,191.17
2019-05-17T22:49:38.994Z,188.47
2019-05-17T22:53:50.639Z,185.47
2019-05-17T22:58:00.983Z,187.22
2019-05-17T23:02:11.356Z,185.37
2019-05-17T23:06:22.206Z,184.20
2019-05-17T23:10:35.066Z,186.60
2019-05-17T23:14:44.499Z,189.67
2019-05-17T23:19:07.466Z,185.10
2019-05-17T23:23:17.799Z,188.30
2019-05-17T23:27:28.325Z,196.90
2019-05-17T23:31:39.305Z,191.77
2019-05-17T23:35:49.648Z,188.00
2019-05-17T23:40:00.088Z,190.30
2019-05-17T23:44:10.511Z,187.43
2019-05-17T23:48:20.847Z,202.83
2019-05-17T23:52:31.161Z,189.00
2019-05-17T23:56:42.654Z,189.33
